sensor_id;sensor_type;location;lat;lon;timestamp;P1;durP1;ratioP1;P2;durP2;ratioP2
43803;SDS011;29430;52.924;-2.388;2023-02-26T00:00:39;4.82;;;0.43;;
43803;SDS011;29430;52.924;-2.388;2023-02-26T00:05:31;3.03;;;0.45;;
43803;SDS011;29430;52.924;-2.388;2023-02-26T00:10:23;10.07;;;0.70;;
43803;SDS011;29430;52.924;-2.388;2023-02-26T00:15:15;7.95;;;0.90;;
43803;SDS011;29430;52.924;-2.388;2023-02-26T00:20:09;6.20;;;1.30;;
43803;SDS011;29430;52.924;-2.388;2023-02-26T00:25:02;7.00;;;1.52;;
43803;SDS011;29430;52.924;-2.388;2023-02-26T00:29:56;10.60;;;1.40;;
43803;SDS011;29430;52.924;-2.388;2023-02-26T00:34:49;7.03;;;1.20;;
43803;SDS011;29430;52.924;-2.388;2023-02-26T00:39:55;5.53;;;0.98;;
43803;SDS011;29430;52.924;-2.388;2023-02-26T00:44:58;7.22;;;1.45;;
43803;SDS011;29430;52.924;-2.388;2023-02-26T00:55:09;6.75;;;0.60;;
43803;SDS011;29430;52.924;-2.388;2023-02-26T01:00:02;1.98;;;0.40;;
43803;SDS011;29430;52.924;-2.388;2023-02-26T01:04:58;3.10;;;0.40;;
43803;SDS011;29430;52.924;-2.388;2023-02-26T01:09:51;4.53;;;0.63;;
43803;SDS011;29430;52.924;-2.388;2023-02-26T01:14:43;2.58;;;0.70;;
43803;SDS011;29430;52.924;-2.388;2023-02-26T01:24:32;9.32;;;1.58;;
43803;SDS011;29430;52.924;-2.388;2023-02-26T01:29:26;2.13;;;0.40;;
43803;SDS011;29430;52.924;-2.388;2023-02-26T01:44:43;4.82;;;0.45;;
43803;SDS011;29430;52.924;-2.388;2023-02-26T01:49:46;2.70;;;0.50;;
43803;SDS011;29430;52.924;-2.388;2023-02-26T01:54:38;2.83;;;0.40;;
43803;SDS011;29430;52.924;-2.388;2023-02-26T01:59:30;3.60;;;0.40;;
43803;SDS011;29430;52.924;-2.388;2023-02-26T02:04:24;4.07;;;0.47;;
43803;SDS011;29430;52.924;-2.388;2023-02-26T02:09:17;4.13;;;0.50;;
43803;SDS011;29430;52.924;-2.388;2023-02-26T02:24:27;3.40;;;0.70;;
43803;SDS011;29430;52.924;-2.388;2023-02-26T02:29:45;8.15;;;0.52;;
43803;SDS011;29430;52.924;-2.388;2023-02-26T02:39:51;4.43;;;0.47;;
43803;SDS011;29430;52.924;-2.388;2023-02-26T02:44:54;2.95;;;0.50;;
43803;SDS011;29430;52.924;-2.388;2023-02-26T02:49:50;8.95;;;0.60;;
43803;SDS011;29430;52.924;-2.388;2023-02-26T02:54:58;7.78;;;0.60;;
43803;SDS011;29430;52.924;-2.388;2023-02-26T02:59:56;6.40;;;0.60;;
43803;SDS011;29430;52.924;-2.388;2023-02-26T03:04:52;11.15;;;1.25;;
43803;SDS011;29430;52.924;-2.388;2023-02-26T03:09:43;5.75;;;0.60;;
43803;SDS011;29430;52.924;-2.388;2023-02-26T03:14:36;8.13;;;0.75;;
43803;SDS011;29430;52.924;-2.388;2023-02-26T03:24:54;9.18;;;0.68;;
43803;SDS011;29430;52.924;-2.388;2023-02-26T03:34:46;3.72;;;0.50;;
43803;SDS011;29430;52.924;-2.388;2023-02-26T03:39:47;5.45;;;0.63;;
43803;SDS011;29430;52.924;-2.388;2023-02-26T03:49:44;6.38;;;0.60;;
43803;SDS011;29430;52.924;-2.388;2023-02-26T03:54:48;4.85;;;0.85;;
43803;SDS011;29430;52.924;-2.388;2023-02-26T03:59:53;8.07;;;1.10;;
43803;SDS011;29430;52.924;-2.388;2023-02-26T04:04:47;6.60;;;0.80;;
43803;SDS011;29430;52.924;-2.388;2023-02-26T04:09:43;3.80;;;0.75;;
43803;SDS011;29430;52.924;-2.388;2023-02-26T04:14:38;6.18;;;0.80;;
43803;SDS011;29430;52.924;-2.388;2023-02-26T04:19:30;7.68;;;0.77;;
43803;SDS011;29430;52.924;-2.388;2023-02-26T04:24:22;8.57;;;0.80;;
43803;SDS011;29430;52.924;-2.388;2023-02-26T04:29:14;8.77;;;0.65;;
43803;SDS011;29430;52.924;-2.388;2023-02-26T04:34:06;5.57;;;1.13;;
43803;SDS011;29430;52.924;-2.388;2023-02-26T04:38:58;5.38;;;0.80;;
43803;SDS011;29430;52.924;-2.388;2023-02-26T04:43:50;4.28;;;0.57;;
43803;SDS011;29430;52.924;-2.388;2023-02-26T04:48:41;11.95;;;1.20;;
43803;SDS011;29430;52.924;-2.388;2023-02-26T04:53:33;8.57;;;0.70;;
43803;SDS011;29430;52.924;-2.388;2023-02-26T04:58:25;5.20;;;0.77;;
43803;SDS011;29430;52.924;-2.388;2023-02-26T05:03:18;7.85;;;0.65;;
43803;SDS011;29430;52.924;-2.388;2023-02-26T05:08:09;4.10;;;0.60;;
43803;SDS011;29430;52.924;-2.388;2023-02-26T05:13:01;8.98;;;0.60;;
43803;SDS011;29430;52.924;-2.388;2023-02-26T05:17:53;4.25;;;0.60;;
43803;SDS011;29430;52.924;-2.388;2023-02-26T05:22:45;7.40;;;0.70;;
43803;SDS011;29430;52.924;-2.388;2023-02-26T05:27:38;5.22;;;0.50;;
43803;SDS011;29430;52.924;-2.388;2023-02-26T05:32:30;2.90;;;0.50;;
43803;SDS011;29430;52.924;-2.388;2023-02-26T05:37:22;5.63;;;0.70;;
43803;SDS011;29430;52.924;-2.388;2023-02-26T05:42:14;5.45;;;0.80;;
43803;SDS011;29430;52.924;-2.388;2023-02-26T05:47:06;4.95;;;0.80;;
43803;SDS011;29430;52.924;-2.388;2023-02-26T05:51:57;4.75;;;1.08;;
43803;SDS011;29430;52.924;-2.388;2023-02-26T05:56:49;5.78;;;1.13;;
43803;SDS011;29430;52.924;-2.388;2023-02-26T06:01:41;5.82;;;0.50;;
43803;SDS011;29430;52.924;-2.388;2023-02-26T06:06:33;5.22;;;0.70;;
43803;SDS011;29430;52.924;-2.388;2023-02-26T06:11:25;4.63;;;0.40;;
43803;SDS011;29430;52.924;-2.388;2023-02-26T06:16:17;4.45;;;0.50;;
43803;SDS011;29430;52.924;-2.388;2023-02-26T06:21:10;5.38;;;0.60;;
43803;SDS011;29430;52.924;-2.388;2023-02-26T06:26:02;6.65;;;0.80;;
43803;SDS011;29430;52.924;-2.388;2023-02-26T06:30:54;5.30;;;0.60;;
43803;SDS011;29430;52.924;-2.388;2023-02-26T06:35:46;6.55;;;0.55;;
43803;SDS011;29430;52.924;-2.388;2023-02-26T06:40:38;10.35;;;0.90;;
43803;SDS011;29430;52.924;-2.388;2023-02-26T06:45:30;5.57;;;0.70;;
43803;SDS011;29430;52.924;-2.388;2023-02-26T06:50:22;4.20;;;0.45;;
43803;SDS011;29430;52.924;-2.388;2023-02-26T06:55:14;4.07;;;0.50;;
43803;SDS011;29430;52.924;-2.388;2023-02-26T07:00:06;2.95;;;0.40;;
43803;SDS011;29430;52.924;-2.388;2023-02-26T07:04:59;4.53;;;0.45;;
43803;SDS011;29430;52.924;-2.388;2023-02-26T07:09:51;8.40;;;0.50;;
43803;SDS011;29430;52.924;-2.388;2023-02-26T07:14:43;6.32;;;0.70;;
43803;SDS011;29430;52.924;-2.388;2023-02-26T07:19:36;5.35;;;0.60;;
43803;SDS011;29430;52.924;-2.388;2023-02-26T07:24:27;9.48;;;0.70;;
43803;SDS011;29430;52.924;-2.388;2023-02-26T07:29:19;5.00;;;0.68;;
43803;SDS011;29430;52.924;-2.388;2023-02-26T07:34:11;5.88;;;0.70;;
43803;SDS011;29430;52.924;-2.388;2023-02-26T07:39:03;7.43;;;0.60;;
43803;SDS011;29430;52.924;-2.388;2023-02-26T07:43:54;5.78;;;0.60;;
43803;SDS011;29430;52.924;-2.388;2023-02-26T07:48:46;4.15;;;0.47;;
43803;SDS011;29430;52.924;-2.388;2023-02-26T07:53:38;6.10;;;0.60;;
43803;SDS011;29430;52.924;-2.388;2023-02-26T07:58:29;4.72;;;0.70;;
43803;SDS011;29430;52.924;-2.388;2023-02-26T08:03:21;3.65;;;0.47;;
43803;SDS011;29430;52.924;-2.388;2023-02-26T08:08:13;5.13;;;0.70;;
43803;SDS011;29430;52.924;-2.388;2023-02-26T08:13:04;10.13;;;0.77;;
43803;SDS011;29430;52.924;-2.388;2023-02-26T08:17:56;6.40;;;0.57;;
43803;SDS011;29430;52.924;-2.388;2023-02-26T08:22:49;4.40;;;0.60;;
43803;SDS011;29430;52.924;-2.388;2023-02-26T08:27:41;3.75;;;0.70;;
43803;SDS011;29430;52.924;-2.388;2023-02-26T08:32:33;4.25;;;0.60;;
43803;SDS011;29430;52.924;-2.388;2023-02-26T08:37:25;4.57;;;0.70;;
43803;SDS011;29430;52.924;-2.388;2023-02-26T08:42:17;5.15;;;0.60;;
43803;SDS011;29430;52.924;-2.388;2023-02-26T08:47:10;5.35;;;0.60;;
43803;SDS011;29430;52.924;-2.388;2023-02-26T08:52:07;8.25;;;0.50;;
43803;SDS011;29430;52.924;-2.388;2023-02-26T08:56:59;7.13;;;0.50;;
43803;SDS011;29430;52.924;-2.388;2023-02-26T09:01:51;5.60;;;0.60;;
43803;SDS011;29430;52.924;-2.388;2023-02-26T09:06:42;2.22;;;0.40;;
43803;SDS011;29430;52.924;-2.388;2023-02-26T09:11:34;5.70;;;0.60;;
43803;SDS011;29430;52.924;-2.388;2023-02-26T09:16:27;4.00;;;0.40;;
43803;SDS011;29430;52.924;-2.388;2023-02-26T09:21:19;3.92;;;0.40;;
43803;SDS011;29430;52.924;-2.388;2023-02-26T09:26:12;4.63;;;0.88;;
43803;SDS011;29430;52.924;-2.388;2023-02-26T09:31:04;4.13;;;0.50;;
43803;SDS011;29430;52.924;-2.388;2023-02-26T09:35:57;5.07;;;0.47;;
43803;SDS011;29430;52.924;-2.388;2023-02-26T09:40:53;7.15;;;0.60;;
43803;SDS011;29430;52.924;-2.388;2023-02-26T09:45:49;4.55;;;0.47;;
43803;SDS011;29430;52.924;-2.388;2023-02-26T09:50:45;6.05;;;0.40;;
43803;SDS011;29430;52.924;-2.388;2023-02-26T09:55:42;4.13;;;0.40;;
43803;SDS011;29430;52.924;-2.388;2023-02-26T10:00:42;7.38;;;0.40;;
43803;SDS011;29430;52.924;-2.388;2023-02-26T10:05:40;4.32;;;0.50;;
43803;SDS011;29430;52.924;-2.388;2023-02-26T10:15:58;3.50;;;0.30;;
43803;SDS011;29430;52.924;-2.388;2023-02-26T10:21:10;3.30;;;0.50;;
43803;SDS011;29430;52.924;-2.388;2023-02-26T10:26:18;7.95;;;0.60;;
43803;SDS011;29430;52.924;-2.388;2023-02-26T10:31:26;5.68;;;0.50;;
43803;SDS011;29430;52.924;-2.388;2023-02-26T10:36:26;8.25;;;0.60;;
43803;SDS011;29430;52.924;-2.388;2023-02-26T10:41:23;5.97;;;0.50;;
43803;SDS011;29430;52.924;-2.388;2023-02-26T10:46:45;5.45;;;0.73;;
43803;SDS011;29430;52.924;-2.388;2023-02-26T10:51:40;6.00;;;0.40;;
43803;SDS011;29430;52.924;-2.388;2023-02-26T10:56:32;3.38;;;0.40;;
43803;SDS011;29430;52.924;-2.388;2023-02-26T11:01:26;6.57;;;0.40;;
43803;SDS011;29430;52.924;-2.388;2023-02-26T11:06:21;11.90;;;0.60;;
43803;SDS011;29430;52.924;-2.388;2023-02-26T11:16:33;4.57;;;0.30;;
43803;SDS011;29430;52.924;-2.388;2023-02-26T11:21:30;5.50;;;0.30;;
43803;SDS011;29430;52.924;-2.388;2023-02-26T11:26:30;9.30;;;0.30;;
43803;SDS011;29430;52.924;-2.388;2023-02-26T11:31:24;5.47;;;0.40;;
43803;SDS011;29430;52.924;-2.388;2023-02-26T11:36:18;5.50;;;0.60;;
43803;SDS011;29430;52.924;-2.388;2023-02-26T11:41:12;6.00;;;0.35;;
43803;SDS011;29430;52.924;-2.388;2023-02-26T11:46:04;8.07;;;0.40;;
43803;SDS011;29430;52.924;-2.388;2023-02-26T11:50:56;8.73;;;0.88;;
43803;SDS011;29430;52.924;-2.388;2023-02-26T11:55:51;4.00;;;0.30;;
43803;SDS011;29430;52.924;-2.388;2023-02-26T12:05:43;4.88;;;0.30;;
43803;SDS011;29430;52.924;-2.388;2023-02-26T12:11:00;5.80;;;0.40;;
43803;SDS011;29430;52.924;-2.388;2023-02-26T12:21:30;8.30;;;0.40;;
43803;SDS011;29430;52.924;-2.388;2023-02-26T12:26:31;4.90;;;0.40;;
43803;SDS011;29430;52.924;-2.388;2023-02-26T12:41:47;3.85;;;0.43;;
43803;SDS011;29430;52.924;-2.388;2023-02-26T12:47:20;6.55;;;0.30;;
43803;SDS011;29430;52.924;-2.388;2023-02-26T13:03:03;6.18;;;0.30;;
43803;SDS011;29430;52.924;-2.388;2023-02-26T13:08:17;4.30;;;0.25;;
43803;SDS011;29430;52.924;-2.388;2023-02-26T13:23:38;4.55;;;0.20;;
43803;SDS011;29430;52.924;-2.388;2023-02-26T13:33:30;3.35;;;0.20;;
43803;SDS011;29430;52.924;-2.388;2023-02-26T13:43:23;7.57;;;0.30;;
43803;SDS011;29430;52.924;-2.388;2023-02-26T13:58:28;4.25;;;1.00;;
43803;SDS011;29430;52.924;-2.388;2023-02-26T14:13:18;1.98;;;0.40;;
43803;SDS011;29430;52.924;-2.388;2023-02-26T14:18:19;4.70;;;0.50;;
43803;SDS011;29430;52.924;-2.388;2023-02-26T14:23:23;3.33;;;0.30;;
43803;SDS011;29430;52.924;-2.388;2023-02-26T14:33:16;5.22;;;0.43;;
43803;SDS011;29430;52.924;-2.388;2023-02-26T14:48:30;10.93;;;1.77;;
43803;SDS011;29430;52.924;-2.388;2023-02-26T14:53:31;7.10;;;0.80;;
43803;SDS011;29430;52.924;-2.388;2023-02-26T15:24:17;9.52;;;0.40;;
43803;SDS011;29430;52.924;-2.388;2023-02-26T15:29:10;1.73;;;0.20;;
43803;SDS011;29430;52.924;-2.388;2023-02-26T15:34:04;3.65;;;0.28;;
43803;SDS011;29430;52.924;-2.388;2023-02-26T15:38:59;5.90;;;0.38;;
43803;SDS011;29430;52.924;-2.388;2023-02-26T15:43:55;4.95;;;0.50;;
43803;SDS011;29430;52.924;-2.388;2023-02-26T15:48:53;8.05;;;0.70;;
43803;SDS011;29430;52.924;-2.388;2023-02-26T15:53:49;4.20;;;0.85;;
43803;SDS011;29430;52.924;-2.388;2023-02-26T15:58:44;2.70;;;0.30;;
43803;SDS011;29430;52.924;-2.388;2023-02-26T16:03:40;2.88;;;0.30;;
43803;SDS011;29430;52.924;-2.388;2023-02-26T16:08:32;3.10;;;0.40;;
43803;SDS011;29430;52.924;-2.388;2023-02-26T16:13:28;2.42;;;0.17;;
43803;SDS011;29430;52.924;-2.388;2023-02-26T16:18:23;5.50;;;0.50;;
43803;SDS011;29430;52.924;-2.388;2023-02-26T16:23:28;1.88;;;0.28;;
43803;SDS011;29430;52.924;-2.388;2023-02-26T16:28:31;8.20;;;1.58;;
43803;SDS011;29430;52.924;-2.388;2023-02-26T16:38:23;3.00;;;0.40;;
43803;SDS011;29430;52.924;-2.388;2023-02-26T16:48:20;2.92;;;0.20;;
43803;SDS011;29430;52.924;-2.388;2023-02-26T16:53:16;1.63;;;0.30;;
43803;SDS011;29430;52.924;-2.388;2023-02-26T16:58:11;3.33;;;0.50;;
43803;SDS011;29430;52.924;-2.388;2023-02-26T17:03:12;2.40;;;0.30;;
43803;SDS011;29430;52.924;-2.388;2023-02-26T17:13:12;8.57;;;0.98;;
43803;SDS011;29430;52.924;-2.388;2023-02-26T17:18:06;6.90;;;0.22;;
43803;SDS011;29430;52.924;-2.388;2023-02-26T17:22:59;1.25;;;0.10;;
43803;SDS011;29430;52.924;-2.388;2023-02-26T17:27:52;5.38;;;0.22;;
43803;SDS011;29430;52.924;-2.388;2023-02-26T17:32:44;1.80;;;0.20;;
43803;SDS011;29430;52.924;-2.388;2023-02-26T17:37:36;8.73;;;0.30;;
43803;SDS011;29430;52.924;-2.388;2023-02-26T17:42:29;7.20;;;0.40;;
43803;SDS011;29430;52.924;-2.388;2023-02-26T17:47:22;3.60;;;0.30;;
43803;SDS011;29430;52.924;-2.388;2023-02-26T17:52:16;5.22;;;0.30;;
43803;SDS011;29430;52.924;-2.388;2023-02-26T17:57:08;4.20;;;0.32;;
43803;SDS011;29430;52.924;-2.388;2023-02-26T18:02:19;2.40;;;0.30;;
43803;SDS011;29430;52.924;-2.388;2023-02-26T18:07:14;2.72;;;0.32;;
43803;SDS011;29430;52.924;-2.388;2023-02-26T18:12:09;4.32;;;0.52;;
43803;SDS011;29430;52.924;-2.388;2023-02-26T18:17:04;3.45;;;0.30;;
43803;SDS011;29430;52.924;-2.388;2023-02-26T18:21:57;2.25;;;0.35;;
43803;SDS011;29430;52.924;-2.388;2023-02-26T18:26:49;2.45;;;0.30;;
43803;SDS011;29430;52.924;-2.388;2023-02-26T18:31:41;5.32;;;0.43;;
43803;SDS011;29430;52.924;-2.388;2023-02-26T18:36:34;2.65;;;0.30;;
43803;SDS011;29430;52.924;-2.388;2023-02-26T18:41:28;4.65;;;0.40;;
43803;SDS011;29430;52.924;-2.388;2023-02-26T18:46:21;3.85;;;0.43;;
43803;SDS011;29430;52.924;-2.388;2023-02-26T18:51:13;3.92;;;0.50;;
43803;SDS011;29430;52.924;-2.388;2023-02-26T18:56:05;3.42;;;0.70;;
43803;SDS011;29430;52.924;-2.388;2023-02-26T19:00:57;6.18;;;0.55;;
43803;SDS011;29430;52.924;-2.388;2023-02-26T19:05:56;4.60;;;0.73;;
43803;SDS011;29430;52.924;-2.388;2023-02-26T19:10:50;19.02;;;5.63;;
43803;SDS011;29430;52.924;-2.388;2023-02-26T19:15:42;25.88;;;7.70;;
43803;SDS011;29430;52.924;-2.388;2023-02-26T19:20:33;13.95;;;3.95;;
43803;SDS011;29430;52.924;-2.388;2023-02-26T19:25:25;9.68;;;2.00;;
43803;SDS011;29430;52.924;-2.388;2023-02-26T19:30:20;10.32;;;1.75;;
43803;SDS011;29430;52.924;-2.388;2023-02-26T19:35:13;9.13;;;2.20;;
43803;SDS011;29430;52.924;-2.388;2023-02-26T19:40:06;4.65;;;1.00;;
43803;SDS011;29430;52.924;-2.388;2023-02-26T19:45:00;7.63;;;1.20;;
43803;SDS011;29430;52.924;-2.388;2023-02-26T19:49:52;4.82;;;0.73;;
43803;SDS011;29430;52.924;-2.388;2023-02-26T19:54:43;8.05;;;0.70;;
43803;SDS011;29430;52.924;-2.388;2023-02-26T19:59:35;4.68;;;0.47;;
43803;SDS011;29430;52.924;-2.388;2023-02-26T20:04:27;5.78;;;0.68;;
43803;SDS011;29430;52.924;-2.388;2023-02-26T20:09:19;5.32;;;0.80;;
43803;SDS011;29430;52.924;-2.388;2023-02-26T20:14:10;5.57;;;0.50;;
43803;SDS011;29430;52.924;-2.388;2023-02-26T20:19:02;4.57;;;0.50;;
43803;SDS011;29430;52.924;-2.388;2023-02-26T20:23:56;3.65;;;0.45;;
43803;SDS011;29430;52.924;-2.388;2023-02-26T20:28:48;2.38;;;0.45;;
43803;SDS011;29430;52.924;-2.388;2023-02-26T20:33:40;5.03;;;0.50;;
43803;SDS011;29430;52.924;-2.388;2023-02-26T20:38:32;2.97;;;0.50;;
43803;SDS011;29430;52.924;-2.388;2023-02-26T20:43:25;5.22;;;1.05;;
43803;SDS011;29430;52.924;-2.388;2023-02-26T20:48:17;9.10;;;0.50;;
43803;SDS011;29430;52.924;-2.388;2023-02-26T20:53:09;2.60;;;0.40;;
43803;SDS011;29430;52.924;-2.388;2023-02-26T20:58:01;10.45;;;1.25;;
43803;SDS011;29430;52.924;-2.388;2023-02-26T21:02:53;3.65;;;0.60;;
43803;SDS011;29430;52.924;-2.388;2023-02-26T21:07:46;5.20;;;0.93;;
43803;SDS011;29430;52.924;-2.388;2023-02-26T21:12:38;3.67;;;0.40;;
43803;SDS011;29430;52.924;-2.388;2023-02-26T21:17:30;6.30;;;0.40;;
43803;SDS011;29430;52.924;-2.388;2023-02-26T21:22:23;3.10;;;0.47;;
43803;SDS011;29430;52.924;-2.388;2023-02-26T21:27:14;2.70;;;0.40;;
43803;SDS011;29430;52.924;-2.388;2023-02-26T21:32:07;5.32;;;0.50;;
43803;SDS011;29430;52.924;-2.388;2023-02-26T21:37:03;4.63;;;0.60;;
43803;SDS011;29430;52.924;-2.388;2023-02-26T21:41:57;4.93;;;0.70;;
43803;SDS011;29430;52.924;-2.388;2023-02-26T21:46:50;4.05;;;0.50;;
43803;SDS011;29430;52.924;-2.388;2023-02-26T21:51:42;2.60;;;0.60;;
43803;SDS011;29430;52.924;-2.388;2023-02-26T21:56:34;4.15;;;0.80;;
43803;SDS011;29430;52.924;-2.388;2023-02-26T22:01:25;5.60;;;1.35;;
43803;SDS011;29430;52.924;-2.388;2023-02-26T22:06:18;4.63;;;1.35;;
43803;SDS011;29430;52.924;-2.388;2023-02-26T22:11:10;6.90;;;1.30;;
43803;SDS011;29430;52.924;-2.388;2023-02-26T22:16:01;6.38;;;1.52;;
43803;SDS011;29430;52.924;-2.388;2023-02-26T22:20:53;4.85;;;1.60;;
43803;SDS011;29430;52.924;-2.388;2023-02-26T22:25:45;4.50;;;1.08;;
43803;SDS011;29430;52.924;-2.388;2023-02-26T22:30:37;9.98;;;1.75;;
43803;SDS011;29430;52.924;-2.388;2023-02-26T22:35:30;6.43;;;1.60;;
43803;SDS011;29430;52.924;-2.388;2023-02-26T22:40:22;6.88;;;1.65;;
43803;SDS011;29430;52.924;-2.388;2023-02-26T22:45:15;8.57;;;1.63;;
43803;SDS011;29430;52.924;-2.388;2023-02-26T22:50:08;5.88;;;1.35;;
43803;SDS011;29430;52.924;-2.388;2023-02-26T22:55:00;6.43;;;1.45;;
43803;SDS011;29430;52.924;-2.388;2023-02-26T22:59:52;5.93;;;0.77;;
43803;SDS011;29430;52.924;-2.388;2023-02-26T23:04:43;3.58;;;0.85;;
43803;SDS011;29430;52.924;-2.388;2023-02-26T23:09:35;5.10;;;1.10;;
43803;SDS011;29430;52.924;-2.388;2023-02-26T23:14:27;4.82;;;0.70;;
43803;SDS011;29430;52.924;-2.388;2023-02-26T23:19:19;3.90;;;0.75;;
43803;SDS011;29430;52.924;-2.388;2023-02-26T23:24:10;6.38;;;0.68;;
43803;SDS011;29430;52.924;-2.388;2023-02-26T23:29:02;8.27;;;1.23;;
43803;SDS011;29430;52.924;-2.388;2023-02-26T23:33:56;1.85;;;0.52;;
43803;SDS011;29430;52.924;-2.388;2023-02-26T23:38:48;3.00;;;0.68;;
43803;SDS011;29430;52.924;-2.388;2023-02-26T23:43:40;5.00;;;0.68;;
43803;SDS011;29430;52.924;-2.388;2023-02-26T23:48:32;5.95;;;0.80;;
43803;SDS011;29430;52.924;-2.388;2023-02-26T23:53:24;7.25;;;0.90;;
43803;SDS011;29430;52.924;-2.388;2023-02-26T23:58:16;4.43;;;0.70;;
